sensor_id;sensor_type;location;lat;lon;timestamp;P1;durP1;ratioP1;P2;durP2;ratioP2
43152;SDS011;28756;49.064;9.290;2024-03-02T00:00:11;11.88;;;8.73;;
43152;SDS011;28756;49.064;9.290;2024-03-02T00:02:44;10.93;;;8.07;;
43152;SDS011;28756;49.064;9.290;2024-03-02T00:05:12;12.32;;;8.50;;
43152;SDS011;28756;49.064;9.290;2024-03-02T00:07:45;10.18;;;8.27;;
43152;SDS011;28756;49.064;9.290;2024-03-02T00:10:23;11.40;;;8.75;;
43152;SDS011;28756;49.064;9.290;2024-03-02T00:12:54;10.40;;;7.68;;
43152;SDS011;28756;49.064;9.290;2024-03-02T00:18:13;10.60;;;7.60;;
43152;SDS011;28756;49.064;9.290;2024-03-02T00:20:43;11.45;;;8.30;;
43152;SDS011;28756;49.064;9.290;2024-03-02T00:23:09;10.15;;;7.85;;
43152;SDS011;28756;49.064;9.290;2024-03-02T00:25:40;9.90;;;7.40;;
43152;SDS011;28756;49.064;9.290;2024-03-02T00:28:16;11.65;;;8.20;;
43152;SDS011;28756;49.064;9.290;2024-03-02T00:31:31;13.93;;;10.25;;
43152;SDS011;28756;49.064;9.290;2024-03-02T00:33:40;12.45;;;9.93;;
43152;SDS011;28756;49.064;9.290;2024-03-02T00:36:11;12.63;;;9.70;;
43152;SDS011;28756;49.064;9.290;2024-03-02T00:38:51;11.65;;;8.52;;
43152;SDS011;28756;49.064;9.290;2024-03-02T00:41:26;12.02;;;8.45;;
43152;SDS011;28756;49.064;9.290;2024-03-02T00:49:02;15.25;;;10.23;;
43152;SDS011;28756;49.064;9.290;2024-03-02T00:51:31;13.98;;;10.02;;
43152;SDS011;28756;49.064;9.290;2024-03-02T00:54:02;13.25;;;9.65;;
43152;SDS011;28756;49.064;9.290;2024-03-02T00:56:30;12.25;;;9.05;;
43152;SDS011;28756;49.064;9.290;2024-03-02T00:58:57;12.05;;;9.15;;
43152;SDS011;28756;49.064;9.290;2024-03-02T01:01:23;10.98;;;8.35;;
43152;SDS011;28756;49.064;9.290;2024-03-02T01:03:49;11.23;;;7.75;;
43152;SDS011;28756;49.064;9.290;2024-03-02T01:06:15;9.30;;;7.18;;
43152;SDS011;28756;49.064;9.290;2024-03-02T01:08:42;12.07;;;8.20;;
43152;SDS011;28756;49.064;9.290;2024-03-02T01:11:08;10.65;;;8.13;;
43152;SDS011;28756;49.064;9.290;2024-03-02T01:13:44;11.57;;;8.48;;
43152;SDS011;28756;49.064;9.290;2024-03-02T01:16:11;10.90;;;8.02;;
43152;SDS011;28756;49.064;9.290;2024-03-02T01:18:37;11.70;;;7.97;;
43152;SDS011;28756;49.064;9.290;2024-03-02T01:21:02;10.63;;;7.65;;
43152;SDS011;28756;49.064;9.290;2024-03-02T01:23:29;9.32;;;7.30;;
43152;SDS011;28756;49.064;9.290;2024-03-02T01:25:55;10.48;;;7.25;;
43152;SDS011;28756;49.064;9.290;2024-03-02T01:28:20;9.30;;;7.53;;
43152;SDS011;28756;49.064;9.290;2024-03-02T01:30:46;10.77;;;7.72;;
43152;SDS011;28756;49.064;9.290;2024-03-02T01:33:13;9.27;;;7.38;;
43152;SDS011;28756;49.064;9.290;2024-03-02T01:35:39;9.25;;;7.05;;
43152;SDS011;28756;49.064;9.290;2024-03-02T01:38:04;11.15;;;8.13;;
43152;SDS011;28756;49.064;9.290;2024-03-02T01:40:34;9.98;;;7.75;;
43152;SDS011;28756;49.064;9.290;2024-03-02T01:43:00;11.63;;;8.38;;
43152;SDS011;28756;49.064;9.290;2024-03-02T01:45:27;12.30;;;8.98;;
43152;SDS011;28756;49.064;9.290;2024-03-02T01:47:53;13.43;;;8.30;;
43152;SDS011;28756;49.064;9.290;2024-03-02T01:50:28;9.70;;;6.97;;
43152;SDS011;28756;49.064;9.290;2024-03-02T01:52:57;9.27;;;7.20;;
43152;SDS011;28756;49.064;9.290;2024-03-02T01:55:24;9.43;;;7.28;;
43152;SDS011;28756;49.064;9.290;2024-03-02T01:57:51;11.10;;;7.43;;
43152;SDS011;28756;49.064;9.290;2024-03-02T02:00:18;11.77;;;7.95;;
43152;SDS011;28756;49.064;9.290;2024-03-02T02:02:45;10.50;;;7.18;;
43152;SDS011;28756;49.064;9.290;2024-03-02T02:05:14;10.65;;;7.15;;
43152;SDS011;28756;49.064;9.290;2024-03-02T02:07:41;11.65;;;8.18;;
43152;SDS011;28756;49.064;9.290;2024-03-02T02:10:08;10.80;;;8.45;;
43152;SDS011;28756;49.064;9.290;2024-03-02T02:12:36;12.35;;;8.20;;
43152;SDS011;28756;49.064;9.290;2024-03-02T02:15:02;12.15;;;8.82;;
43152;SDS011;28756;49.064;9.290;2024-03-02T02:17:30;11.60;;;8.25;;
43152;SDS011;28756;49.064;9.290;2024-03-02T02:19:56;11.48;;;8.57;;
43152;SDS011;28756;49.064;9.290;2024-03-02T02:22:22;11.57;;;8.63;;
43152;SDS011;28756;49.064;9.290;2024-03-02T02:24:47;11.32;;;8.30;;
43152;SDS011;28756;49.064;9.290;2024-03-02T02:27:13;12.18;;;8.98;;
43152;SDS011;28756;49.064;9.290;2024-03-02T02:29:40;13.00;;;8.50;;
43152;SDS011;28756;49.064;9.290;2024-03-02T02:32:07;10.82;;;8.30;;
43152;SDS011;28756;49.064;9.290;2024-03-02T02:34:33;11.50;;;8.05;;
43152;SDS011;28756;49.064;9.290;2024-03-02T02:36:58;12.25;;;8.68;;
43152;SDS011;28756;49.064;9.290;2024-03-02T02:39:24;10.23;;;8.07;;
43152;SDS011;28756;49.064;9.290;2024-03-02T02:41:50;10.80;;;7.70;;
43152;SDS011;28756;49.064;9.290;2024-03-02T02:44:16;9.52;;;7.35;;
43152;SDS011;28756;49.064;9.290;2024-03-02T02:46:42;11.13;;;8.05;;
43152;SDS011;28756;49.064;9.290;2024-03-02T02:49:07;13.15;;;8.43;;
43152;SDS011;28756;49.064;9.290;2024-03-02T02:51:33;10.00;;;7.47;;
43152;SDS011;28756;49.064;9.290;2024-03-02T02:53:59;13.77;;;8.98;;
43152;SDS011;28756;49.064;9.290;2024-03-02T02:56:25;11.98;;;8.60;;
43152;SDS011;28756;49.064;9.290;2024-03-02T02:58:50;12.68;;;8.77;;
43152;SDS011;28756;49.064;9.290;2024-03-02T03:01:16;11.88;;;8.73;;
43152;SDS011;28756;49.064;9.290;2024-03-02T03:03:43;11.85;;;9.20;;
43152;SDS011;28756;49.064;9.290;2024-03-02T03:06:10;11.98;;;8.82;;
43152;SDS011;28756;49.064;9.290;2024-03-02T03:08:36;12.10;;;8.88;;
43152;SDS011;28756;49.064;9.290;2024-03-02T03:11:03;12.93;;;8.80;;
43152;SDS011;28756;49.064;9.290;2024-03-02T03:13:33;14.40;;;9.13;;
43152;SDS011;28756;49.064;9.290;2024-03-02T03:15:59;15.05;;;9.40;;
43152;SDS011;28756;49.064;9.290;2024-03-02T03:18:25;12.48;;;9.13;;
43152;SDS011;28756;49.064;9.290;2024-03-02T03:20:51;12.75;;;9.35;;
43152;SDS011;28756;49.064;9.290;2024-03-02T03:23:17;13.90;;;9.27;;
43152;SDS011;28756;49.064;9.290;2024-03-02T03:25:42;11.23;;;8.50;;
43152;SDS011;28756;49.064;9.290;2024-03-02T03:28:08;11.73;;;8.60;;
43152;SDS011;28756;49.064;9.290;2024-03-02T03:30:37;11.68;;;8.63;;
43152;SDS011;28756;49.064;9.290;2024-03-02T03:33:09;12.88;;;9.07;;
43152;SDS011;28756;49.064;9.290;2024-03-02T03:35:37;13.20;;;9.18;;
43152;SDS011;28756;49.064;9.290;2024-03-02T03:38:03;13.05;;;9.52;;
43152;SDS011;28756;49.064;9.290;2024-03-02T03:40:29;13.35;;;9.45;;
43152;SDS011;28756;49.064;9.290;2024-03-02T03:42:55;14.02;;;8.95;;
43152;SDS011;28756;49.064;9.290;2024-03-02T03:45:21;13.75;;;9.15;;
43152;SDS011;28756;49.064;9.290;2024-03-02T03:47:51;13.30;;;9.35;;
43152;SDS011;28756;49.064;9.290;2024-03-02T03:50:18;12.80;;;9.30;;
43152;SDS011;28756;49.064;9.290;2024-03-02T03:52:44;13.00;;;8.90;;
43152;SDS011;28756;49.064;9.290;2024-03-02T03:55:10;14.15;;;9.70;;
43152;SDS011;28756;49.064;9.290;2024-03-02T03:57:36;16.50;;;10.48;;
43152;SDS011;28756;49.064;9.290;2024-03-02T04:00:02;14.10;;;9.88;;
43152;SDS011;28756;49.064;9.290;2024-03-02T04:02:29;13.57;;;9.45;;
43152;SDS011;28756;49.064;9.290;2024-03-02T04:04:55;14.10;;;9.65;;
43152;SDS011;28756;49.064;9.290;2024-03-02T04:07:20;14.32;;;10.18;;
43152;SDS011;28756;49.064;9.290;2024-03-02T04:09:46;14.48;;;9.95;;
43152;SDS011;28756;49.064;9.290;2024-03-02T04:12:12;14.48;;;10.02;;
43152;SDS011;28756;49.064;9.290;2024-03-02T04:14:38;13.95;;;9.77;;
43152;SDS011;28756;49.064;9.290;2024-03-02T04:17:04;14.13;;;9.95;;
43152;SDS011;28756;49.064;9.290;2024-03-02T04:19:30;16.63;;;11.00;;
43152;SDS011;28756;49.064;9.290;2024-03-02T04:21:55;14.38;;;10.10;;
43152;SDS011;28756;49.064;9.290;2024-03-02T04:24:21;14.00;;;9.55;;
43152;SDS011;28756;49.064;9.290;2024-03-02T04:26:47;13.15;;;9.68;;
43152;SDS011;28756;49.064;9.290;2024-03-02T04:29:12;16.48;;;10.43;;
43152;SDS011;28756;49.064;9.290;2024-03-02T04:31:38;14.43;;;9.65;;
43152;SDS011;28756;49.064;9.290;2024-03-02T04:34:04;16.05;;;10.45;;
43152;SDS011;28756;49.064;9.290;2024-03-02T04:36:29;14.68;;;9.57;;
43152;SDS011;28756;49.064;9.290;2024-03-02T04:38:55;15.55;;;10.93;;
43152;SDS011;28756;49.064;9.290;2024-03-02T04:41:21;13.80;;;9.85;;
43152;SDS011;28756;49.064;9.290;2024-03-02T04:43:47;14.27;;;9.45;;
43152;SDS011;28756;49.064;9.290;2024-03-02T04:46:13;15.35;;;10.18;;
43152;SDS011;28756;49.064;9.290;2024-03-02T04:48:39;14.18;;;10.00;;
43152;SDS011;28756;49.064;9.290;2024-03-02T04:51:04;13.98;;;9.05;;
43152;SDS011;28756;49.064;9.290;2024-03-02T04:53:32;14.40;;;9.77;;
43152;SDS011;28756;49.064;9.290;2024-03-02T04:55:58;13.77;;;9.50;;
43152;SDS011;28756;49.064;9.290;2024-03-02T04:58:42;15.40;;;10.85;;
43152;SDS011;28756;49.064;9.290;2024-03-02T05:01:08;13.70;;;9.80;;
43152;SDS011;28756;49.064;9.290;2024-03-02T05:03:34;12.15;;;8.82;;
43152;SDS011;28756;49.064;9.290;2024-03-02T05:06:00;13.80;;;9.68;;
43152;SDS011;28756;49.064;9.290;2024-03-02T05:08:25;14.43;;;9.45;;
43152;SDS011;28756;49.064;9.290;2024-03-02T05:10:51;13.82;;;9.73;;
43152;SDS011;28756;49.064;9.290;2024-03-02T05:13:17;13.68;;;10.07;;
43152;SDS011;28756;49.064;9.290;2024-03-02T05:15:43;14.85;;;10.90;;
43152;SDS011;28756;49.064;9.290;2024-03-02T05:18:08;13.85;;;9.85;;
43152;SDS011;28756;49.064;9.290;2024-03-02T05:20:34;12.98;;;9.60;;
43152;SDS011;28756;49.064;9.290;2024-03-02T05:23:00;13.88;;;9.40;;
43152;SDS011;28756;49.064;9.290;2024-03-02T05:25:25;14.98;;;10.43;;
43152;SDS011;28756;49.064;9.290;2024-03-02T05:27:54;14.57;;;10.35;;
43152;SDS011;28756;49.064;9.290;2024-03-02T05:30:21;15.02;;;10.02;;
43152;SDS011;28756;49.064;9.290;2024-03-02T05:32:46;13.63;;;9.32;;
43152;SDS011;28756;49.064;9.290;2024-03-02T05:35:12;10.98;;;8.45;;
43152;SDS011;28756;49.064;9.290;2024-03-02T05:37:41;13.95;;;8.88;;
43152;SDS011;28756;49.064;9.290;2024-03-02T05:40:07;16.90;;;10.10;;
43152;SDS011;28756;49.064;9.290;2024-03-02T05:42:33;14.88;;;9.70;;
43152;SDS011;28756;49.064;9.290;2024-03-02T05:44:59;11.95;;;8.60;;
43152;SDS011;28756;49.064;9.290;2024-03-02T05:47:25;12.50;;;8.95;;
43152;SDS011;28756;49.064;9.290;2024-03-02T05:49:50;13.50;;;9.45;;
43152;SDS011;28756;49.064;9.290;2024-03-02T05:52:16;12.45;;;8.82;;
43152;SDS011;28756;49.064;9.290;2024-03-02T05:54:42;12.82;;;9.07;;
43152;SDS011;28756;49.064;9.290;2024-03-02T05:57:08;13.30;;;9.45;;
43152;SDS011;28756;49.064;9.290;2024-03-02T05:59:51;11.70;;;8.15;;
43152;SDS011;28756;49.064;9.290;2024-03-02T06:02:17;11.02;;;7.45;;
43152;SDS011;28756;49.064;9.290;2024-03-02T06:04:43;12.48;;;8.27;;
43152;SDS011;28756;49.064;9.290;2024-03-02T06:07:12;11.35;;;7.80;;
43152;SDS011;28756;49.064;9.290;2024-03-02T06:09:38;13.07;;;9.25;;
43152;SDS011;28756;49.064;9.290;2024-03-02T06:12:04;10.63;;;7.30;;
43152;SDS011;28756;49.064;9.290;2024-03-02T06:14:30;11.02;;;7.78;;
43152;SDS011;28756;49.064;9.290;2024-03-02T06:16:56;9.98;;;7.22;;
43152;SDS011;28756;49.064;9.290;2024-03-02T06:19:22;10.27;;;7.03;;
43152;SDS011;28756;49.064;9.290;2024-03-02T06:21:47;12.00;;;8.32;;
43152;SDS011;28756;49.064;9.290;2024-03-02T06:24:13;10.82;;;7.72;;
43152;SDS011;28756;49.064;9.290;2024-03-02T06:26:39;10.60;;;7.68;;
43152;SDS011;28756;49.064;9.290;2024-03-02T06:29:05;13.00;;;8.45;;
43152;SDS011;28756;49.064;9.290;2024-03-02T06:31:30;11.45;;;8.30;;
43152;SDS011;28756;49.064;9.290;2024-03-02T06:34:00;13.88;;;9.25;;
43152;SDS011;28756;49.064;9.290;2024-03-02T06:36:25;11.05;;;8.07;;
43152;SDS011;28756;49.064;9.290;2024-03-02T06:38:51;13.68;;;9.40;;
43152;SDS011;28756;49.064;9.290;2024-03-02T06:41:17;13.82;;;9.02;;
43152;SDS011;28756;49.064;9.290;2024-03-02T06:43:42;12.25;;;8.80;;
43152;SDS011;28756;49.064;9.290;2024-03-02T06:46:08;11.27;;;7.63;;
43152;SDS011;28756;49.064;9.290;2024-03-02T06:48:34;12.75;;;8.65;;
43152;SDS011;28756;49.064;9.290;2024-03-02T06:51:00;16.20;;;10.45;;
43152;SDS011;28756;49.064;9.290;2024-03-02T06:53:26;14.02;;;9.35;;
43152;SDS011;28756;49.064;9.290;2024-03-02T06:55:52;14.73;;;8.88;;
43152;SDS011;28756;49.064;9.290;2024-03-02T06:58:18;13.27;;;9.32;;
43152;SDS011;28756;49.064;9.290;2024-03-02T07:00:43;11.35;;;8.60;;
43152;SDS011;28756;49.064;9.290;2024-03-02T07:03:09;12.95;;;9.60;;
43152;SDS011;28756;49.064;9.290;2024-03-02T07:05:38;11.30;;;8.02;;
43152;SDS011;28756;49.064;9.290;2024-03-02T07:08:04;11.93;;;8.20;;
43152;SDS011;28756;49.064;9.290;2024-03-02T07:10:31;10.70;;;7.75;;
43152;SDS011;28756;49.064;9.290;2024-03-02T07:12:56;10.93;;;8.00;;
43152;SDS011;28756;49.064;9.290;2024-03-02T07:15:22;11.82;;;8.75;;
43152;SDS011;28756;49.064;9.290;2024-03-02T07:17:54;10.77;;;7.78;;
43152;SDS011;28756;49.064;9.290;2024-03-02T07:20:20;9.63;;;6.95;;
43152;SDS011;28756;49.064;9.290;2024-03-02T07:22:46;13.98;;;8.85;;
43152;SDS011;28756;49.064;9.290;2024-03-02T07:25:12;12.77;;;8.73;;
43152;SDS011;28756;49.064;9.290;2024-03-02T07:27:38;10.98;;;8.13;;
43152;SDS011;28756;49.064;9.290;2024-03-02T07:30:04;11.80;;;8.38;;
43152;SDS011;28756;49.064;9.290;2024-03-02T07:32:31;11.35;;;8.50;;
43152;SDS011;28756;49.064;9.290;2024-03-02T07:34:57;11.85;;;8.57;;
43152;SDS011;28756;49.064;9.290;2024-03-02T07:37:23;10.88;;;7.18;;
43152;SDS011;28756;49.064;9.290;2024-03-02T07:39:50;9.73;;;6.93;;
43152;SDS011;28756;49.064;9.290;2024-03-02T07:42:16;10.18;;;7.72;;
43152;SDS011;28756;49.064;9.290;2024-03-02T07:44:43;14.32;;;9.35;;
43152;SDS011;28756;49.064;9.290;2024-03-02T07:47:10;10.65;;;7.63;;
43152;SDS011;28756;49.064;9.290;2024-03-02T07:49:36;12.68;;;8.50;;
43152;SDS011;28756;49.064;9.290;2024-03-02T07:52:01;13.25;;;8.57;;
43152;SDS011;28756;49.064;9.290;2024-03-02T07:54:27;12.13;;;8.52;;
43152;SDS011;28756;49.064;9.290;2024-03-02T07:56:53;9.68;;;6.68;;
43152;SDS011;28756;49.064;9.290;2024-03-02T07:59:19;9.77;;;6.90;;
43152;SDS011;28756;49.064;9.290;2024-03-02T08:01:46;8.48;;;6.28;;
43152;SDS011;28756;49.064;9.290;2024-03-02T08:04:14;11.85;;;7.07;;
43152;SDS011;28756;49.064;9.290;2024-03-02T08:06:39;9.18;;;7.05;;
43152;SDS011;28756;49.064;9.290;2024-03-02T08:09:05;9.10;;;6.60;;
43152;SDS011;28756;49.064;9.290;2024-03-02T08:11:34;10.32;;;7.47;;
43152;SDS011;28756;49.064;9.290;2024-03-02T08:14:01;8.60;;;6.90;;
43152;SDS011;28756;49.064;9.290;2024-03-02T08:16:26;11.90;;;10.48;;
43152;SDS011;28756;49.064;9.290;2024-03-02T08:18:52;9.40;;;8.10;;
43152;SDS011;28756;49.064;9.290;2024-03-02T08:21:18;11.25;;;8.23;;
43152;SDS011;28756;49.064;9.290;2024-03-02T08:23:44;8.98;;;7.20;;
43152;SDS011;28756;49.064;9.290;2024-03-02T08:26:10;8.30;;;6.20;;
43152;SDS011;28756;49.064;9.290;2024-03-02T08:28:37;10.50;;;7.43;;
43152;SDS011;28756;49.064;9.290;2024-03-02T08:31:05;10.65;;;6.85;;
43152;SDS011;28756;49.064;9.290;2024-03-02T08:33:32;10.23;;;7.63;;
43152;SDS011;28756;49.064;9.290;2024-03-02T08:35:57;9.55;;;7.78;;
43152;SDS011;28756;49.064;9.290;2024-03-02T08:38:24;10.25;;;7.72;;
43152;SDS011;28756;49.064;9.290;2024-03-02T08:40:50;10.98;;;7.45;;
43152;SDS011;28756;49.064;9.290;2024-03-02T08:43:15;8.13;;;6.47;;
43152;SDS011;28756;49.064;9.290;2024-03-02T08:45:41;10.38;;;6.15;;
43152;SDS011;28756;49.064;9.290;2024-03-02T08:48:07;7.65;;;5.57;;
43152;SDS011;28756;49.064;9.290;2024-03-02T08:50:34;7.47;;;5.78;;
43152;SDS011;28756;49.064;9.290;2024-03-02T08:53:00;8.68;;;6.90;;
43152;SDS011;28756;49.064;9.290;2024-03-02T08:55:28;7.93;;;6.13;;
43152;SDS011;28756;49.064;9.290;2024-03-02T08:57:56;8.98;;;6.93;;
43152;SDS011;28756;49.064;9.290;2024-03-02T09:00:23;6.93;;;5.53;;
43152;SDS011;28756;49.064;9.290;2024-03-02T09:02:49;8.57;;;5.65;;
43152;SDS011;28756;49.064;9.290;2024-03-02T09:05:15;6.60;;;5.07;;
43152;SDS011;28756;49.064;9.290;2024-03-02T09:07:41;6.72;;;5.13;;
43152;SDS011;28756;49.064;9.290;2024-03-02T09:10:07;6.50;;;5.05;;
43152;SDS011;28756;49.064;9.290;2024-03-02T09:12:33;7.03;;;4.93;;
43152;SDS011;28756;49.064;9.290;2024-03-02T09:15:00;5.60;;;4.18;;
43152;SDS011;28756;49.064;9.290;2024-03-02T09:17:28;6.72;;;4.53;;
43152;SDS011;28756;49.064;9.290;2024-03-02T09:19:54;6.47;;;4.43;;
43152;SDS011;28756;49.064;9.290;2024-03-02T09:22:20;5.68;;;3.83;;
43152;SDS011;28756;49.064;9.290;2024-03-02T09:24:46;5.68;;;4.40;;
43152;SDS011;28756;49.064;9.290;2024-03-02T09:27:12;7.50;;;4.10;;
43152;SDS011;28756;49.064;9.290;2024-03-02T09:29:38;6.00;;;3.85;;
43152;SDS011;28756;49.064;9.290;2024-03-02T09:32:04;6.35;;;4.03;;
43152;SDS011;28756;49.064;9.290;2024-03-02T09:34:31;5.25;;;3.95;;
43152;SDS011;28756;49.064;9.290;2024-03-02T09:36:57;7.43;;;3.83;;
43152;SDS011;28756;49.064;9.290;2024-03-02T09:39:23;4.82;;;3.50;;
43152;SDS011;28756;49.064;9.290;2024-03-02T09:41:50;4.25;;;3.50;;
43152;SDS011;28756;49.064;9.290;2024-03-02T09:44:16;5.88;;;3.42;;
43152;SDS011;28756;49.064;9.290;2024-03-02T09:46:48;3.25;;;2.70;;
43152;SDS011;28756;49.064;9.290;2024-03-02T09:49:34;5.63;;;3.10;;
43152;SDS011;28756;49.064;9.290;2024-03-02T09:52:00;4.13;;;3.38;;
43152;SDS011;28756;49.064;9.290;2024-03-02T09:57:31;3.78;;;3.03;;
43152;SDS011;28756;49.064;9.290;2024-03-02T09:59:57;4.68;;;3.13;;
43152;SDS011;28756;49.064;9.290;2024-03-02T10:02:23;4.35;;;3.20;;
43152;SDS011;28756;49.064;9.290;2024-03-02T10:04:49;4.57;;;3.10;;
43152;SDS011;28756;49.064;9.290;2024-03-02T10:07:18;5.50;;;3.40;;
43152;SDS011;28756;49.064;9.290;2024-03-02T10:09:45;5.55;;;3.28;;
43152;SDS011;28756;49.064;9.290;2024-03-02T10:12:13;5.90;;;3.95;;
43152;SDS011;28756;49.064;9.290;2024-03-02T10:14:41;4.65;;;3.42;;
43152;SDS011;28756;49.064;9.290;2024-03-02T10:17:08;4.60;;;3.45;;
43152;SDS011;28756;49.064;9.290;2024-03-02T10:19:38;4.28;;;3.15;;
43152;SDS011;28756;49.064;9.290;2024-03-02T10:22:05;6.25;;;2.90;;
43152;SDS011;28756;49.064;9.290;2024-03-02T10:24:40;4.43;;;2.95;;
43152;SDS011;28756;49.064;9.290;2024-03-02T10:29:47;2.65;;;2.40;;
43152;SDS011;28756;49.064;9.290;2024-03-02T10:32:13;3.03;;;2.22;;
43152;SDS011;28756;49.064;9.290;2024-03-02T10:34:40;3.15;;;2.20;;
43152;SDS011;28756;49.064;9.290;2024-03-02T10:37:08;2.53;;;2.13;;
43152;SDS011;28756;49.064;9.290;2024-03-02T10:39:36;2.47;;;1.90;;
43152;SDS011;28756;49.064;9.290;2024-03-02T10:42:03;2.75;;;2.00;;
43152;SDS011;28756;49.064;9.290;2024-03-02T10:44:31;3.08;;;2.30;;
43152;SDS011;28756;49.064;9.290;2024-03-02T10:46:59;2.90;;;2.03;;
43152;SDS011;28756;49.064;9.290;2024-03-02T10:49:30;2.63;;;2.00;;
43152;SDS011;28756;49.064;9.290;2024-03-02T10:51:58;2.45;;;1.92;;
43152;SDS011;28756;49.064;9.290;2024-03-02T10:54:24;2.13;;;1.80;;
43152;SDS011;28756;49.064;9.290;2024-03-02T10:57:01;3.42;;;2.65;;
43152;SDS011;28756;49.064;9.290;2024-03-02T11:02:00;2.58;;;2.03;;
43152;SDS011;28756;49.064;9.290;2024-03-02T11:04:29;3.25;;;2.38;;
43152;SDS011;28756;49.064;9.290;2024-03-02T11:06:59;2.92;;;2.28;;
43152;SDS011;28756;49.064;9.290;2024-03-02T11:09:28;2.47;;;2.00;;
43152;SDS011;28756;49.064;9.290;2024-03-02T11:12:02;7.03;;;3.50;;
43152;SDS011;28756;49.064;9.290;2024-03-02T11:14:44;4.43;;;2.58;;
43152;SDS011;28756;49.064;9.290;2024-03-02T11:17:15;2.33;;;1.80;;
43152;SDS011;28756;49.064;9.290;2024-03-02T11:19:50;2.13;;;1.80;;
43152;SDS011;28756;49.064;9.290;2024-03-02T11:22:49;1.90;;;1.40;;
43152;SDS011;28756;49.064;9.290;2024-03-02T11:25:35;1.88;;;1.58;;
43152;SDS011;28756;49.064;9.290;2024-03-02T11:33:01;2.22;;;1.40;;
43152;SDS011;28756;49.064;9.290;2024-03-02T11:35:41;1.70;;;1.10;;
43152;SDS011;28756;49.064;9.290;2024-03-02T11:38:10;1.20;;;1.10;;
43152;SDS011;28756;49.064;9.290;2024-03-02T11:40:36;1.42;;;1.00;;
43152;SDS011;28756;49.064;9.290;2024-03-02T11:43:04;1.65;;;1.00;;
43152;SDS011;28756;49.064;9.290;2024-03-02T11:45:31;0.70;;;0.63;;
43152;SDS011;28756;49.064;9.290;2024-03-02T11:47:59;1.02;;;0.85;;
43152;SDS011;28756;49.064;9.290;2024-03-02T11:50:36;0.73;;;0.73;;
43152;SDS011;28756;49.064;9.290;2024-03-02T11:53:12;1.35;;;0.70;;
43152;SDS011;28756;49.064;9.290;2024-03-02T11:55:39;5.00;;;0.47;;
43152;SDS011;28756;49.064;9.290;2024-03-02T11:58:11;0.65;;;0.50;;
43152;SDS011;28756;49.064;9.290;2024-03-02T12:00:38;0.80;;;0.50;;
43152;SDS011;28756;49.064;9.290;2024-03-02T12:03:05;0.60;;;0.47;;
43152;SDS011;28756;49.064;9.290;2024-03-02T12:05:37;0.30;;;0.30;;
43152;SDS011;28756;49.064;9.290;2024-03-02T12:08:04;0.45;;;0.40;;
43152;SDS011;28756;49.064;9.290;2024-03-02T12:10:34;0.73;;;0.50;;
43152;SDS011;28756;49.064;9.290;2024-03-02T12:13:02;1.05;;;0.57;;
43152;SDS011;28756;49.064;9.290;2024-03-02T12:15:34;1.20;;;0.50;;
43152;SDS011;28756;49.064;9.290;2024-03-02T12:18:02;0.30;;;0.30;;
43152;SDS011;28756;49.064;9.290;2024-03-02T12:20:29;0.57;;;0.40;;
43152;SDS011;28756;49.064;9.290;2024-03-02T12:23:01;0.52;;;0.45;;
43152;SDS011;28756;49.064;9.290;2024-03-02T12:25:29;0.73;;;0.50;;
43152;SDS011;28756;49.064;9.290;2024-03-02T12:27:59;0.40;;;0.40;;
43152;SDS011;28756;49.064;9.290;2024-03-02T12:30:30;0.40;;;0.40;;
43152;SDS011;28756;49.064;9.290;2024-03-02T12:33:00;0.77;;;0.60;;
43152;SDS011;28756;49.064;9.290;2024-03-02T12:35:26;0.45;;;0.40;;
43152;SDS011;28756;49.064;9.290;2024-03-02T12:37:52;0.82;;;0.43;;
43152;SDS011;28756;49.064;9.290;2024-03-02T12:40:19;0.50;;;0.30;;
43152;SDS011;28756;49.064;9.290;2024-03-02T12:42:47;0.75;;;0.50;;
43152;SDS011;28756;49.064;9.290;2024-03-02T12:45:14;0.40;;;0.40;;
43152;SDS011;28756;49.064;9.290;2024-03-02T12:47:41;0.60;;;0.47;;
43152;SDS011;28756;49.064;9.290;2024-03-02T12:50:08;0.38;;;0.35;;
43152;SDS011;28756;49.064;9.290;2024-03-02T12:52:35;0.65;;;0.57;;
43152;SDS011;28756;49.064;9.290;2024-03-02T12:55:01;0.43;;;0.43;;
43152;SDS011;28756;49.064;9.290;2024-03-02T12:57:30;1.55;;;0.30;;
43152;SDS011;28756;49.064;9.290;2024-03-02T13:00:00;0.60;;;0.40;;
43152;SDS011;28756;49.064;9.290;2024-03-02T13:02:34;1.50;;;0.40;;
43152;SDS011;28756;49.064;9.290;2024-03-02T13:05:01;0.75;;;0.50;;
43152;SDS011;28756;49.064;9.290;2024-03-02T13:07:28;0.40;;;0.35;;
43152;SDS011;28756;49.064;9.290;2024-03-02T13:09:55;0.85;;;0.43;;
43152;SDS011;28756;49.064;9.290;2024-03-02T13:12:22;1.30;;;0.50;;
43152;SDS011;28756;49.064;9.290;2024-03-02T13:14:49;1.05;;;0.65;;
43152;SDS011;28756;49.064;9.290;2024-03-02T13:17:21;0.38;;;0.30;;
43152;SDS011;28756;49.064;9.290;2024-03-02T13:19:51;0.47;;;0.40;;
43152;SDS011;28756;49.064;9.290;2024-03-02T13:22:18;0.52;;;0.35;;
43152;SDS011;28756;49.064;9.290;2024-03-02T13:24:44;0.90;;;0.50;;
43152;SDS011;28756;49.064;9.290;2024-03-02T13:27:10;0.40;;;0.40;;
43152;SDS011;28756;49.064;9.290;2024-03-02T13:29:36;0.60;;;0.50;;
43152;SDS011;28756;49.064;9.290;2024-03-02T13:32:02;0.50;;;0.35;;
43152;SDS011;28756;49.064;9.290;2024-03-02T13:34:29;0.30;;;0.30;;
43152;SDS011;28756;49.064;9.290;2024-03-02T13:36:54;0.73;;;0.40;;
43152;SDS011;28756;49.064;9.290;2024-03-02T13:39:20;0.20;;;0.20;;
43152;SDS011;28756;49.064;9.290;2024-03-02T13:41:49;0.60;;;0.40;;
43152;SDS011;28756;49.064;9.290;2024-03-02T13:44:22;0.52;;;0.30;;
43152;SDS011;28756;49.064;9.290;2024-03-02T13:46:48;0.20;;;0.20;;
43152;SDS011;28756;49.064;9.290;2024-03-02T13:49:14;0.45;;;0.22;;
43152;SDS011;28756;49.064;9.290;2024-03-02T13:51:40;0.50;;;0.40;;
43152;SDS011;28756;49.064;9.290;2024-03-02T13:54:05;0.32;;;0.30;;
43152;SDS011;28756;49.064;9.290;2024-03-02T13:56:31;0.65;;;0.43;;
43152;SDS011;28756;49.064;9.290;2024-03-02T13:58:58;0.20;;;0.20;;
43152;SDS011;28756;49.064;9.290;2024-03-02T14:01:24;0.40;;;0.32;;
43152;SDS011;28756;49.064;9.290;2024-03-02T14:03:50;1.45;;;1.10;;
43152;SDS011;28756;49.064;9.290;2024-03-02T14:06:16;1.08;;;0.90;;
43152;SDS011;28756;49.064;9.290;2024-03-02T14:08:42;0.85;;;0.80;;
43152;SDS011;28756;49.064;9.290;2024-03-02T14:11:09;1.85;;;1.50;;
43152;SDS011;28756;49.064;9.290;2024-03-02T14:13:40;1.80;;;1.40;;
43152;SDS011;28756;49.064;9.290;2024-03-02T14:16:06;1.90;;;1.50;;
43152;SDS011;28756;49.064;9.290;2024-03-02T14:18:34;0.98;;;0.80;;
43152;SDS011;28756;49.064;9.290;2024-03-02T14:20:59;0.93;;;0.50;;
43152;SDS011;28756;49.064;9.290;2024-03-02T14:23:25;0.60;;;0.50;;
43152;SDS011;28756;49.064;9.290;2024-03-02T14:25:51;0.30;;;0.30;;
43152;SDS011;28756;49.064;9.290;2024-03-02T14:28:16;0.60;;;0.50;;
43152;SDS011;28756;49.064;9.290;2024-03-02T14:30:44;0.70;;;0.60;;
43152;SDS011;28756;49.064;9.290;2024-03-02T14:33:10;1.73;;;0.50;;
43152;SDS011;28756;49.064;9.290;2024-03-02T14:35:36;0.57;;;0.40;;
43152;SDS011;28756;49.064;9.290;2024-03-02T14:38:02;0.90;;;0.60;;
43152;SDS011;28756;49.064;9.290;2024-03-02T14:40:28;2.15;;;0.50;;
43152;SDS011;28756;49.064;9.290;2024-03-02T14:42:54;0.55;;;0.50;;
43152;SDS011;28756;49.064;9.290;2024-03-02T14:45:20;0.45;;;0.43;;
43152;SDS011;28756;49.064;9.290;2024-03-02T14:47:46;0.65;;;0.50;;
43152;SDS011;28756;49.064;9.290;2024-03-02T14:50:12;0.40;;;0.40;;
43152;SDS011;28756;49.064;9.290;2024-03-02T14:52:38;0.82;;;0.50;;
43152;SDS011;28756;49.064;9.290;2024-03-02T14:55:03;1.13;;;0.50;;
43152;SDS011;28756;49.064;9.290;2024-03-02T14:57:32;0.98;;;0.40;;
43152;SDS011;28756;49.064;9.290;2024-03-02T14:59:58;1.08;;;0.60;;
43152;SDS011;28756;49.064;9.290;2024-03-02T15:02:23;0.50;;;0.40;;